Terminal Aerodrome Forecast
Issued by NWS Sterling, VA

Home | Current Version | Previous Version | Text Only | Print | Product List | Glossary On
Versions: 1 2 3 4 5 6 7 8 9 10 11 12 13
000
FTUS41 KLWX 191200 AAA
TAFCHO
TAF AMD
KCHO 191201Z 1912/2012 02004KT P6SM BKN008 BKN050
     FM191300 05004KT P6SM BKN025 BKN050
     FM192000 11004KT P6SM BKN025
     FM200200 00000KT P6SM BKN015
     FM200900 00000KT 5SM BR SCT008 BKN015=

USA.gov is the U.S. government's official web portal to all federal, state and local government web resources and services.